sensor_id;sensor_type;location;lat;lon;timestamp;temperature;humidity
59881;DHT22;45751;51.380;10.326;2023-03-11T00:00:15;0.20;99.90
59881;DHT22;45751;51.380;10.326;2023-03-11T00:02:45;0.10;99.90
59881;DHT22;45751;51.380;10.326;2023-03-11T00:05:18;0.10;99.90
59881;DHT22;45751;51.380;10.326;2023-03-11T00:07:45;0.20;99.90
59881;DHT22;45751;51.380;10.326;2023-03-11T00:10:17;0.20;99.90
59881;DHT22;45751;51.380;10.326;2023-03-11T00:12:44;0.10;99.90
59881;DHT22;45751;51.380;10.326;2023-03-11T00:15:11;0.10;99.90
59881;DHT22;45751;51.380;10.326;2023-03-11T00:17:38;0.10;99.90
59881;DHT22;45751;51.380;10.326;2023-03-11T00:20:06;0.10;99.90
59881;DHT22;45751;51.380;10.326;2023-03-11T00:22:33;0.10;99.90
59881;DHT22;45751;51.380;10.326;2023-03-11T00:25:00;0.10;99.90
59881;DHT22;45751;51.380;10.326;2023-03-11T00:27:27;0.10;99.90
59881;DHT22;45751;51.380;10.326;2023-03-11T00:29:53;0.10;99.90
59881;DHT22;45751;51.380;10.326;2023-03-11T00:32:20;0.10;99.90
59881;DHT22;45751;51.380;10.326;2023-03-11T00:34:47;0.00;99.90
59881;DHT22;45751;51.380;10.326;2023-03-11T00:37:14;0.00;99.90
59881;DHT22;45751;51.380;10.326;2023-03-11T00:39:41;0.00;99.90
59881;DHT22;45751;51.380;10.326;2023-03-11T00:42:09;0.00;99.90
59881;DHT22;45751;51.380;10.326;2023-03-11T00:44:37;0.00;99.90
59881;DHT22;45751;51.380;10.326;2023-03-11T00:47:04;0.00;99.90
59881;DHT22;45751;51.380;10.326;2023-03-11T00:49:32;0.00;99.90
59881;DHT22;45751;51.380;10.326;2023-03-11T00:51:59;0.00;99.90
59881;DHT22;45751;51.380;10.326;2023-03-11T00:54:26;0.00;99.90
59881;DHT22;45751;51.380;10.326;2023-03-11T00:56:53;0.00;99.90
59881;DHT22;45751;51.380;10.326;2023-03-11T00:59:20;0.00;99.90
59881;DHT22;45751;51.380;10.326;2023-03-11T01:01:47;0.00;99.90
59881;DHT22;45751;51.380;10.326;2023-03-11T01:04:14;0.00;99.90
59881;DHT22;45751;51.380;10.326;2023-03-11T01:06:41;0.00;99.90
59881;DHT22;45751;51.380;10.326;2023-03-11T01:09:11;0.00;99.90
59881;DHT22;45751;51.380;10.326;2023-03-11T01:11:38;0.00;99.90
59881;DHT22;45751;51.380;10.326;2023-03-11T01:14:07;0.00;99.90
59881;DHT22;45751;51.380;10.326;2023-03-11T01:16:34;0.00;99.90
59881;DHT22;45751;51.380;10.326;2023-03-11T01:19:00;0.00;99.90
59881;DHT22;45751;51.380;10.326;2023-03-11T01:21:27;0.00;99.90
59881;DHT22;45751;51.380;10.326;2023-03-11T01:23:54;0.00;99.90
59881;DHT22;45751;51.380;10.326;2023-03-11T01:26:21;0.00;99.90
59881;DHT22;45751;51.380;10.326;2023-03-11T01:28:48;-0.10;99.90
59881;DHT22;45751;51.380;10.326;2023-03-11T01:31:15;-0.10;99.90
59881;DHT22;45751;51.380;10.326;2023-03-11T01:33:42;-0.10;99.90
59881;DHT22;45751;51.380;10.326;2023-03-11T01:36:08;-0.10;99.90
59881;DHT22;45751;51.380;10.326;2023-03-11T01:38:35;-0.10;99.90
59881;DHT22;45751;51.380;10.326;2023-03-11T01:41:02;-0.10;99.90
59881;DHT22;45751;51.380;10.326;2023-03-11T01:46:24;-0.10;99.90
59881;DHT22;45751;51.380;10.326;2023-03-11T01:49:00;-0.10;99.90
59881;DHT22;45751;51.380;10.326;2023-03-11T01:51:31;-0.10;99.90
59881;DHT22;45751;51.380;10.326;2023-03-11T01:54:03;-0.10;99.90
59881;DHT22;45751;51.380;10.326;2023-03-11T01:56:31;-0.10;99.90
59881;DHT22;45751;51.380;10.326;2023-03-11T01:58:58;-0.10;99.90
59881;DHT22;45751;51.380;10.326;2023-03-11T02:01:25;-0.10;99.90
59881;DHT22;45751;51.380;10.326;2023-03-11T02:03:54;-0.10;99.90
59881;DHT22;45751;51.380;10.326;2023-03-11T02:06:22;-0.10;99.90
59881;DHT22;45751;51.380;10.326;2023-03-11T02:08:50;-0.20;99.90
59881;DHT22;45751;51.380;10.326;2023-03-11T02:11:23;-0.20;99.90
59881;DHT22;45751;51.380;10.326;2023-03-11T02:13:56;-0.20;99.90
59881;DHT22;45751;51.380;10.326;2023-03-11T02:16:24;-0.20;99.90
59881;DHT22;45751;51.380;10.326;2023-03-11T02:18:51;-0.20;99.90
59881;DHT22;45751;51.380;10.326;2023-03-11T02:21:24;-0.20;99.90
59881;DHT22;45751;51.380;10.326;2023-03-11T02:29:17;-0.40;99.90
59881;DHT22;45751;51.380;10.326;2023-03-11T02:31:45;-0.40;99.90
59881;DHT22;45751;51.380;10.326;2023-03-11T02:34:20;-0.50;99.90
59881;DHT22;45751;51.380;10.326;2023-03-11T02:36:48;-0.40;99.90
59881;DHT22;45751;51.380;10.326;2023-03-11T02:42:04;-0.50;99.90
59881;DHT22;45751;51.380;10.326;2023-03-11T02:44:31;-0.40;99.90
59881;DHT22;45751;51.380;10.326;2023-03-11T02:46:59;-0.50;99.90
59881;DHT22;45751;51.380;10.326;2023-03-11T02:49:28;-0.40;99.90
59881;DHT22;45751;51.380;10.326;2023-03-11T02:51:55;-0.50;99.90
59881;DHT22;45751;51.380;10.326;2023-03-11T02:54:22;-0.50;99.90
59881;DHT22;45751;51.380;10.326;2023-03-11T02:56:49;-0.40;99.90
59881;DHT22;45751;51.380;10.326;2023-03-11T02:59:17;-0.50;99.90
59881;DHT22;45751;51.380;10.326;2023-03-11T03:01:44;-0.50;99.90
59881;DHT22;45751;51.380;10.326;2023-03-11T03:04:11;-0.50;99.90
59881;DHT22;45751;51.380;10.326;2023-03-11T03:06:38;-0.50;99.90
59881;DHT22;45751;51.380;10.326;2023-03-11T03:09:05;-0.50;99.90
59881;DHT22;45751;51.380;10.326;2023-03-11T03:11:32;-0.50;99.90
59881;DHT22;45751;51.380;10.326;2023-03-11T03:13:59;-0.50;99.90
59881;DHT22;45751;51.380;10.326;2023-03-11T03:16:26;-0.50;99.90
59881;DHT22;45751;51.380;10.326;2023-03-11T03:18:53;-0.50;99.90
59881;DHT22;45751;51.380;10.326;2023-03-11T03:21:20;-0.50;99.90
59881;DHT22;45751;51.380;10.326;2023-03-11T03:23:47;-0.50;99.90
59881;DHT22;45751;51.380;10.326;2023-03-11T03:26:14;-0.50;99.90
59881;DHT22;45751;51.380;10.326;2023-03-11T03:28:44;-0.50;99.90
59881;DHT22;45751;51.380;10.326;2023-03-11T03:31:12;-0.50;99.90
59881;DHT22;45751;51.380;10.326;2023-03-11T03:33:41;-0.50;99.90
59881;DHT22;45751;51.380;10.326;2023-03-11T03:36:11;-0.50;99.90
59881;DHT22;45751;51.380;10.326;2023-03-11T03:38:45;-0.50;99.90
59881;DHT22;45751;51.380;10.326;2023-03-11T03:41:13;-0.50;99.90
59881;DHT22;45751;51.380;10.326;2023-03-11T03:43:41;-0.50;99.90
59881;DHT22;45751;51.380;10.326;2023-03-11T03:46:09;-0.50;99.90
59881;DHT22;45751;51.380;10.326;2023-03-11T03:48:44;-0.50;99.90
59881;DHT22;45751;51.380;10.326;2023-03-11T03:51:12;-0.50;99.90
59881;DHT22;45751;51.380;10.326;2023-03-11T03:53:49;-0.50;99.90
59881;DHT22;45751;51.380;10.326;2023-03-11T03:56:17;-0.50;99.90
59881;DHT22;45751;51.380;10.326;2023-03-11T03:58:44;-0.50;99.90
59881;DHT22;45751;51.380;10.326;2023-03-11T04:01:11;-0.50;99.90
59881;DHT22;45751;51.380;10.326;2023-03-11T04:03:39;-0.50;99.90
59881;DHT22;45751;51.380;10.326;2023-03-11T04:08:37;-0.50;99.90
59881;DHT22;45751;51.380;10.326;2023-03-11T04:11:06;-0.50;99.90
59881;DHT22;45751;51.380;10.326;2023-03-11T04:13:35;-0.50;99.90
59881;DHT22;45751;51.380;10.326;2023-03-11T04:16:04;-0.50;99.90
59881;DHT22;45751;51.380;10.326;2023-03-11T04:18:32;-0.60;99.90
59881;DHT22;45751;51.380;10.326;2023-03-11T04:21:03;-0.50;99.90
59881;DHT22;45751;51.380;10.326;2023-03-11T04:23:30;-0.60;99.90
59881;DHT22;45751;51.380;10.326;2023-03-11T04:25:57;-0.60;99.90
59881;DHT22;45751;51.380;10.326;2023-03-11T04:28:25;-0.60;99.90
59881;DHT22;45751;51.380;10.326;2023-03-11T04:30:52;-0.60;99.90
59881;DHT22;45751;51.380;10.326;2023-03-11T04:33:19;-0.50;99.90
59881;DHT22;45751;51.380;10.326;2023-03-11T04:35:46;-0.60;99.90
59881;DHT22;45751;51.380;10.326;2023-03-11T04:38:13;-0.60;99.90
59881;DHT22;45751;51.380;10.326;2023-03-11T04:40:40;-0.60;99.90
59881;DHT22;45751;51.380;10.326;2023-03-11T04:43:07;-0.60;99.90
59881;DHT22;45751;51.380;10.326;2023-03-11T04:45:37;-0.60;99.90
59881;DHT22;45751;51.380;10.326;2023-03-11T04:48:05;-0.60;99.90
59881;DHT22;45751;51.380;10.326;2023-03-11T04:50:33;-0.60;99.90
59881;DHT22;45751;51.380;10.326;2023-03-11T04:53:00;-0.60;99.90
59881;DHT22;45751;51.380;10.326;2023-03-11T04:55:27;-0.60;99.90
59881;DHT22;45751;51.380;10.326;2023-03-11T04:57:54;-0.60;99.90
59881;DHT22;45751;51.380;10.326;2023-03-11T05:00:22;-0.60;99.90
59881;DHT22;45751;51.380;10.326;2023-03-11T05:02:58;-0.60;99.90
59881;DHT22;45751;51.380;10.326;2023-03-11T05:05:26;-0.60;99.90
59881;DHT22;45751;51.380;10.326;2023-03-11T05:07:52;-0.60;99.90
59881;DHT22;45751;51.380;10.326;2023-03-11T05:10:20;-0.60;99.90
59881;DHT22;45751;51.380;10.326;2023-03-11T05:12:51;-0.60;99.90
59881;DHT22;45751;51.380;10.326;2023-03-11T05:15:20;-0.60;99.90
59881;DHT22;45751;51.380;10.326;2023-03-11T05:17:47;-0.60;99.90
59881;DHT22;45751;51.380;10.326;2023-03-11T05:20:15;-0.60;99.90
59881;DHT22;45751;51.380;10.326;2023-03-11T05:22:42;-0.60;99.90
59881;DHT22;45751;51.380;10.326;2023-03-11T05:25:09;-0.60;99.90
59881;DHT22;45751;51.380;10.326;2023-03-11T05:27:37;-0.60;99.90
59881;DHT22;45751;51.380;10.326;2023-03-11T05:30:06;-0.60;99.90
59881;DHT22;45751;51.380;10.326;2023-03-11T05:32:35;-0.60;99.90
59881;DHT22;45751;51.380;10.326;2023-03-11T05:35:04;-0.60;99.90
59881;DHT22;45751;51.380;10.326;2023-03-11T05:37:31;-0.60;99.90
59881;DHT22;45751;51.380;10.326;2023-03-11T05:40:00;-0.60;99.90
59881;DHT22;45751;51.380;10.326;2023-03-11T05:42:28;-0.60;99.90
59881;DHT22;45751;51.380;10.326;2023-03-11T05:44:56;-0.70;99.90
59881;DHT22;45751;51.380;10.326;2023-03-11T05:47:24;-0.70;99.90
59881;DHT22;45751;51.380;10.326;2023-03-11T05:49:51;-0.70;99.90
59881;DHT22;45751;51.380;10.326;2023-03-11T05:52:19;-0.60;99.90
59881;DHT22;45751;51.380;10.326;2023-03-11T05:54:51;-0.60;99.90
59881;DHT22;45751;51.380;10.326;2023-03-11T05:57:21;-0.70;99.90
59881;DHT22;45751;51.380;10.326;2023-03-11T05:59:48;-0.70;99.90
59881;DHT22;45751;51.380;10.326;2023-03-11T06:02:15;-0.70;99.90
59881;DHT22;45751;51.380;10.326;2023-03-11T06:04:42;-0.70;99.90
59881;DHT22;45751;51.380;10.326;2023-03-11T06:07:09;-0.70;99.90
59881;DHT22;45751;51.380;10.326;2023-03-11T06:09:38;-0.70;99.90
59881;DHT22;45751;51.380;10.326;2023-03-11T06:12:09;-0.70;99.90
59881;DHT22;45751;51.380;10.326;2023-03-11T06:14:53;-0.70;99.90
59881;DHT22;45751;51.380;10.326;2023-03-11T06:17:20;-0.70;99.90
59881;DHT22;45751;51.380;10.326;2023-03-11T06:19:47;-0.70;99.90
59881;DHT22;45751;51.380;10.326;2023-03-11T06:22:14;-0.70;99.90
59881;DHT22;45751;51.380;10.326;2023-03-11T06:24:41;-0.70;99.90
59881;DHT22;45751;51.380;10.326;2023-03-11T06:27:08;-0.70;99.90
59881;DHT22;45751;51.380;10.326;2023-03-11T06:29:39;-0.70;99.90
59881;DHT22;45751;51.380;10.326;2023-03-11T06:32:06;-0.70;99.90
59881;DHT22;45751;51.380;10.326;2023-03-11T06:34:32;-0.70;99.90
59881;DHT22;45751;51.380;10.326;2023-03-11T06:37:00;-0.70;99.90
59881;DHT22;45751;51.380;10.326;2023-03-11T06:39:27;-0.80;99.90
59881;DHT22;45751;51.380;10.326;2023-03-11T06:41:54;-0.70;99.90
59881;DHT22;45751;51.380;10.326;2023-03-11T06:44:21;-0.70;99.90
59881;DHT22;45751;51.380;10.326;2023-03-11T06:46:48;-0.70;99.90
59881;DHT22;45751;51.380;10.326;2023-03-11T06:49:16;-0.70;99.90
59881;DHT22;45751;51.380;10.326;2023-03-11T06:51:43;-0.70;99.90
59881;DHT22;45751;51.380;10.326;2023-03-11T06:54:12;-0.70;99.90
59881;DHT22;45751;51.380;10.326;2023-03-11T06:56:39;-0.70;99.90
59881;DHT22;45751;51.380;10.326;2023-03-11T06:59:07;-0.70;99.90
59881;DHT22;45751;51.380;10.326;2023-03-11T07:01:35;-0.70;99.90
59881;DHT22;45751;51.380;10.326;2023-03-11T07:04:04;-0.70;99.90
59881;DHT22;45751;51.380;10.326;2023-03-11T07:06:32;-0.70;99.90
59881;DHT22;45751;51.380;10.326;2023-03-11T07:09:11;-0.70;99.90
59881;DHT22;45751;51.380;10.326;2023-03-11T07:11:41;-0.70;99.90
59881;DHT22;45751;51.380;10.326;2023-03-11T07:14:13;-0.70;99.90
59881;DHT22;45751;51.380;10.326;2023-03-11T07:16:44;-0.60;99.90
59881;DHT22;45751;51.380;10.326;2023-03-11T07:19:22;-0.60;99.90
59881;DHT22;45751;51.380;10.326;2023-03-11T07:21:48;-0.60;99.90
59881;DHT22;45751;51.380;10.326;2023-03-11T07:24:15;-0.60;99.90
59881;DHT22;45751;51.380;10.326;2023-03-11T07:26:42;-0.60;99.90
59881;DHT22;45751;51.380;10.326;2023-03-11T07:29:10;-0.60;99.90
59881;DHT22;45751;51.380;10.326;2023-03-11T07:31:37;-0.50;99.90
59881;DHT22;45751;51.380;10.326;2023-03-11T07:34:05;-0.60;99.90
59881;DHT22;45751;51.380;10.326;2023-03-11T07:36:39;-0.50;99.90
59881;DHT22;45751;51.380;10.326;2023-03-11T07:39:07;-0.50;99.90
59881;DHT22;45751;51.380;10.326;2023-03-11T07:41:35;-0.50;99.90
59881;DHT22;45751;51.380;10.326;2023-03-11T07:44:14;-0.50;99.90
59881;DHT22;45751;51.380;10.326;2023-03-11T07:46:42;-0.50;99.90
59881;DHT22;45751;51.380;10.326;2023-03-11T07:49:10;-0.50;99.90
59881;DHT22;45751;51.380;10.326;2023-03-11T07:51:40;-0.50;99.90
59881;DHT22;45751;51.380;10.326;2023-03-11T07:54:15;-0.50;99.90
59881;DHT22;45751;51.380;10.326;2023-03-11T07:56:42;-0.50;99.90
59881;DHT22;45751;51.380;10.326;2023-03-11T07:59:09;-0.50;99.90
59881;DHT22;45751;51.380;10.326;2023-03-11T08:01:36;-0.50;99.90
59881;DHT22;45751;51.380;10.326;2023-03-11T08:04:08;-0.40;99.90
59881;DHT22;45751;51.380;10.326;2023-03-11T08:06:41;-0.40;99.90
59881;DHT22;45751;51.380;10.326;2023-03-11T08:09:09;-0.40;99.90
59881;DHT22;45751;51.380;10.326;2023-03-11T08:11:36;-0.40;99.90
59881;DHT22;45751;51.380;10.326;2023-03-11T08:14:03;-0.40;99.90
59881;DHT22;45751;51.380;10.326;2023-03-11T08:16:30;-0.40;99.90
59881;DHT22;45751;51.380;10.326;2023-03-11T08:18:57;-0.40;99.90
59881;DHT22;45751;51.380;10.326;2023-03-11T08:21:26;-0.40;99.90
59881;DHT22;45751;51.380;10.326;2023-03-11T08:23:58;-0.40;99.90
59881;DHT22;45751;51.380;10.326;2023-03-11T08:26:26;-0.40;99.90
59881;DHT22;45751;51.380;10.326;2023-03-11T08:28:54;-0.40;99.90
59881;DHT22;45751;51.380;10.326;2023-03-11T08:31:32;-0.40;99.90
59881;DHT22;45751;51.380;10.326;2023-03-11T08:34:09;-0.40;99.90
59881;DHT22;45751;51.380;10.326;2023-03-11T08:36:37;-0.40;99.90
59881;DHT22;45751;51.380;10.326;2023-03-11T08:39:04;-0.40;99.90
59881;DHT22;45751;51.380;10.326;2023-03-11T08:41:31;-0.40;99.90
59881;DHT22;45751;51.380;10.326;2023-03-11T08:43:58;-0.40;99.90
59881;DHT22;45751;51.380;10.326;2023-03-11T08:46:34;-0.40;99.90
59881;DHT22;45751;51.380;10.326;2023-03-11T08:49:02;-0.50;99.90
59881;DHT22;45751;51.380;10.326;2023-03-11T08:51:31;-0.40;99.90
59881;DHT22;45751;51.380;10.326;2023-03-11T08:53:59;-0.50;99.90
59881;DHT22;45751;51.380;10.326;2023-03-11T08:56:26;-0.50;99.90
59881;DHT22;45751;51.380;10.326;2023-03-11T08:58:53;-0.40;99.90
59881;DHT22;45751;51.380;10.326;2023-03-11T09:01:20;-0.50;99.90
59881;DHT22;45751;51.380;10.326;2023-03-11T09:03:49;-0.40;99.90
59881;DHT22;45751;51.380;10.326;2023-03-11T09:06:16;-0.50;99.90
59881;DHT22;45751;51.380;10.326;2023-03-11T09:08:44;-0.40;99.90
59881;DHT22;45751;51.380;10.326;2023-03-11T09:11:12;-0.40;99.90
59881;DHT22;45751;51.380;10.326;2023-03-11T09:13:40;-0.40;99.90
59881;DHT22;45751;51.380;10.326;2023-03-11T09:16:11;-0.40;99.90
59881;DHT22;45751;51.380;10.326;2023-03-11T09:18:39;-0.40;99.90
59881;DHT22;45751;51.380;10.326;2023-03-11T09:21:07;-0.30;99.90
59881;DHT22;45751;51.380;10.326;2023-03-11T09:23:34;-0.40;99.90
59881;DHT22;45751;51.380;10.326;2023-03-11T09:26:00;-0.30;99.90
59881;DHT22;45751;51.380;10.326;2023-03-11T09:28:27;-0.30;99.90
59881;DHT22;45751;51.380;10.326;2023-03-11T09:30:54;-0.20;99.90
59881;DHT22;45751;51.380;10.326;2023-03-11T09:33:21;-0.20;99.90
59881;DHT22;45751;51.380;10.326;2023-03-11T09:35:48;-0.30;99.90
59881;DHT22;45751;51.380;10.326;2023-03-11T09:38:15;-0.30;99.90
59881;DHT22;45751;51.380;10.326;2023-03-11T09:40:58;-0.30;99.90
59881;DHT22;45751;51.380;10.326;2023-03-11T09:52:14;-0.30;99.90
59881;DHT22;45751;51.380;10.326;2023-03-11T09:54:48;-0.20;99.90
59881;DHT22;45751;51.380;10.326;2023-03-11T09:57:32;-0.20;99.90
59881;DHT22;45751;51.380;10.326;2023-03-11T10:00:03;-0.20;99.90
59881;DHT22;45751;51.380;10.326;2023-03-11T10:02:38;-0.20;99.90
59881;DHT22;45751;51.380;10.326;2023-03-11T10:05:14;-0.20;99.90
59881;DHT22;45751;51.380;10.326;2023-03-11T10:07:51;-0.10;99.90
59881;DHT22;45751;51.380;10.326;2023-03-11T10:10:20;-0.10;99.90
59881;DHT22;45751;51.380;10.326;2023-03-11T10:18:48;0.00;99.90
59881;DHT22;45751;51.380;10.326;2023-03-11T10:24:55;0.10;99.90
59881;DHT22;45751;51.380;10.326;2023-03-11T10:27:25;0.10;99.90
59881;DHT22;45751;51.380;10.326;2023-03-11T10:30:26;0.20;99.90
59881;DHT22;45751;51.380;10.326;2023-03-11T10:36:04;0.20;99.90
59881;DHT22;45751;51.380;10.326;2023-03-11T10:38:44;0.20;99.90
59881;DHT22;45751;51.380;10.326;2023-03-11T10:44:05;0.40;99.40
59881;DHT22;45751;51.380;10.326;2023-03-11T10:46:32;0.40;97.90
59881;DHT22;45751;51.380;10.326;2023-03-11T10:48:59;0.40;98.00
59881;DHT22;45751;51.380;10.326;2023-03-11T10:51:34;0.40;98.60
59881;DHT22;45751;51.380;10.326;2023-03-11T10:54:02;0.40;97.80
59881;DHT22;45751;51.380;10.326;2023-03-11T10:58:58;0.40;98.20
59881;DHT22;45751;51.380;10.326;2023-03-11T11:01:26;0.40;97.30
59881;DHT22;45751;51.380;10.326;2023-03-11T11:03:56;0.40;97.90
59881;DHT22;45751;51.380;10.326;2023-03-11T11:09:15;0.40;98.20
59881;DHT22;45751;51.380;10.326;2023-03-11T11:12:03;0.40;98.20
59881;DHT22;45751;51.380;10.326;2023-03-11T11:14:50;0.40;98.20
59881;DHT22;45751;51.380;10.326;2023-03-11T11:19:50;0.50;97.60
59881;DHT22;45751;51.380;10.326;2023-03-11T11:22:20;0.50;96.30
59881;DHT22;45751;51.380;10.326;2023-03-11T11:24:49;0.50;97.30
59881;DHT22;45751;51.380;10.326;2023-03-11T11:27:25;0.60;95.70
59881;DHT22;45751;51.380;10.326;2023-03-11T11:30:22;0.60;96.50
59881;DHT22;45751;51.380;10.326;2023-03-11T11:32:49;0.60;97.20
59881;DHT22;45751;51.380;10.326;2023-03-11T11:35:23;0.70;97.20
59881;DHT22;45751;51.380;10.326;2023-03-11T11:37:59;0.70;96.90
59881;DHT22;45751;51.380;10.326;2023-03-11T11:40:31;0.80;96.10
59881;DHT22;45751;51.380;10.326;2023-03-11T11:43:05;0.90;96.80
59881;DHT22;45751;51.380;10.326;2023-03-11T11:51:19;0.90;94.50
59881;DHT22;45751;51.380;10.326;2023-03-11T11:54:00;0.90;94.70
59881;DHT22;45751;51.380;10.326;2023-03-11T11:56:30;0.90;95.00
59881;DHT22;45751;51.380;10.326;2023-03-11T11:58:57;0.90;93.60
59881;DHT22;45751;51.380;10.326;2023-03-11T12:01:39;0.90;93.40
59881;DHT22;45751;51.380;10.326;2023-03-11T12:06:43;1.00;94.70
59881;DHT22;45751;51.380;10.326;2023-03-11T12:09:28;1.10;93.60
59881;DHT22;45751;51.380;10.326;2023-03-11T12:12:17;1.20;93.50
59881;DHT22;45751;51.380;10.326;2023-03-11T12:17:41;1.20;92.10
59881;DHT22;45751;51.380;10.326;2023-03-11T12:30:52;1.30;92.00
59881;DHT22;45751;51.380;10.326;2023-03-11T12:35:56;1.40;91.60
59881;DHT22;45751;51.380;10.326;2023-03-11T12:38:32;1.50;91.10
59881;DHT22;45751;51.380;10.326;2023-03-11T12:46:13;1.70;90.30
59881;DHT22;45751;51.380;10.326;2023-03-11T12:54:21;1.80;87.30
59881;DHT22;45751;51.380;10.326;2023-03-11T12:56:55;1.80;87.60
59881;DHT22;45751;51.380;10.326;2023-03-11T12:59:38;1.70;87.00
59881;DHT22;45751;51.380;10.326;2023-03-11T13:02:35;1.80;87.70
59881;DHT22;45751;51.380;10.326;2023-03-11T13:08:06;1.80;89.00
59881;DHT22;45751;51.380;10.326;2023-03-11T13:10:40;1.70;88.30
59881;DHT22;45751;51.380;10.326;2023-03-11T13:15:51;2.00;91.10
59881;DHT22;45751;51.380;10.326;2023-03-11T13:18:26;2.10;91.10
59881;DHT22;45751;51.380;10.326;2023-03-11T13:21:01;2.20;84.20
59881;DHT22;45751;51.380;10.326;2023-03-11T13:23:32;2.30;80.60
59881;DHT22;45751;51.380;10.326;2023-03-11T13:26:15;2.20;78.50
59881;DHT22;45751;51.380;10.326;2023-03-11T13:29:10;2.20;79.20
59881;DHT22;45751;51.380;10.326;2023-03-11T13:42:26;2.20;80.80
59881;DHT22;45751;51.380;10.326;2023-03-11T13:44:56;2.20;79.40
59881;DHT22;45751;51.380;10.326;2023-03-11T13:47:24;2.20;79.10
59881;DHT22;45751;51.380;10.326;2023-03-11T13:52:34;2.30;81.80
59881;DHT22;45751;51.380;10.326;2023-03-11T13:55:06;2.40;77.10
59881;DHT22;45751;51.380;10.326;2023-03-11T13:57:36;2.50;75.50
59881;DHT22;45751;51.380;10.326;2023-03-11T14:00:24;2.60;76.10
59881;DHT22;45751;51.380;10.326;2023-03-11T14:03:00;2.70;74.00
59881;DHT22;45751;51.380;10.326;2023-03-11T14:05:32;2.80;75.00
59881;DHT22;45751;51.380;10.326;2023-03-11T14:10:53;3.00;74.30
59881;DHT22;45751;51.380;10.326;2023-03-11T14:13:21;3.10;75.10
59881;DHT22;45751;51.380;10.326;2023-03-11T14:16:08;3.20;73.60
59881;DHT22;45751;51.380;10.326;2023-03-11T14:18:41;3.20;73.60
59881;DHT22;45751;51.380;10.326;2023-03-11T14:21:26;3.30;72.60
59881;DHT22;45751;51.380;10.326;2023-03-11T14:23:54;3.30;72.30
59881;DHT22;45751;51.380;10.326;2023-03-11T14:28:52;3.40;69.60
59881;DHT22;45751;51.380;10.326;2023-03-11T14:34:21;3.40;69.60
59881;DHT22;45751;51.380;10.326;2023-03-11T14:36:50;3.40;70.00
59881;DHT22;45751;51.380;10.326;2023-03-11T14:39:32;3.40;68.60
59881;DHT22;45751;51.380;10.326;2023-03-11T14:42:28;3.50;68.60
59881;DHT22;45751;51.380;10.326;2023-03-11T14:45:13;3.60;67.90
59881;DHT22;45751;51.380;10.326;2023-03-11T14:47:47;3.60;68.60
59881;DHT22;45751;51.380;10.326;2023-03-11T14:50:21;3.60;66.80
59881;DHT22;45751;51.380;10.326;2023-03-11T14:52:58;3.60;67.00
59881;DHT22;45751;51.380;10.326;2023-03-11T14:55:32;3.50;67.60
59881;DHT22;45751;51.380;10.326;2023-03-11T14:58:08;3.40;67.20
59881;DHT22;45751;51.380;10.326;2023-03-11T15:00:40;3.30;67.20
59881;DHT22;45751;51.380;10.326;2023-03-11T15:03:27;3.20;68.00
59881;DHT22;45751;51.380;10.326;2023-03-11T15:08:28;3.20;69.40
59881;DHT22;45751;51.380;10.326;2023-03-11T15:11:28;3.10;69.40
59881;DHT22;45751;51.380;10.326;2023-03-11T15:20:03;3.00;68.10
59881;DHT22;45751;51.380;10.326;2023-03-11T15:22:39;3.00;67.40
59881;DHT22;45751;51.380;10.326;2023-03-11T15:25:16;3.00;67.90
59881;DHT22;45751;51.380;10.326;2023-03-11T15:27:43;3.00;67.90
59881;DHT22;45751;51.380;10.326;2023-03-11T15:32:46;3.00;66.20
59881;DHT22;45751;51.380;10.326;2023-03-11T15:35:18;2.90;66.00
59881;DHT22;45751;51.380;10.326;2023-03-11T15:37:46;2.90;66.20
59881;DHT22;45751;51.380;10.326;2023-03-11T15:40:25;2.90;67.50
59881;DHT22;45751;51.380;10.326;2023-03-11T15:45:42;2.90;66.90
59881;DHT22;45751;51.380;10.326;2023-03-11T15:48:10;2.90;67.00
59881;DHT22;45751;51.380;10.326;2023-03-11T15:50:49;2.90;66.80
59881;DHT22;45751;51.380;10.326;2023-03-11T15:53:21;2.90;67.00
59881;DHT22;45751;51.380;10.326;2023-03-11T15:55:48;2.90;67.40
59881;DHT22;45751;51.380;10.326;2023-03-11T15:58:17;2.90;67.10
59881;DHT22;45751;51.380;10.326;2023-03-11T16:00:50;2.90;67.80
59881;DHT22;45751;51.380;10.326;2023-03-11T16:03:18;2.90;67.90
59881;DHT22;45751;51.380;10.326;2023-03-11T16:05:46;3.00;68.60
59881;DHT22;45751;51.380;10.326;2023-03-11T16:08:13;3.00;68.10
59881;DHT22;45751;51.380;10.326;2023-03-11T16:10:40;3.00;69.10
59881;DHT22;45751;51.380;10.326;2023-03-11T16:13:14;3.10;68.30
59881;DHT22;45751;51.380;10.326;2023-03-11T16:15:44;3.00;67.60
59881;DHT22;45751;51.380;10.326;2023-03-11T16:18:12;3.00;67.40
59881;DHT22;45751;51.380;10.326;2023-03-11T16:20:43;3.00;67.50
59881;DHT22;45751;51.380;10.326;2023-03-11T16:23:30;3.00;67.90
59881;DHT22;45751;51.380;10.326;2023-03-11T16:26:17;3.10;68.50
59881;DHT22;45751;51.380;10.326;2023-03-11T16:28:43;2.90;68.30
59881;DHT22;45751;51.380;10.326;2023-03-11T16:31:11;2.90;68.30
59881;DHT22;45751;51.380;10.326;2023-03-11T16:33:38;2.80;68.70
59881;DHT22;45751;51.380;10.326;2023-03-11T16:36:05;2.80;68.50
59881;DHT22;45751;51.380;10.326;2023-03-11T16:38:48;2.70;68.60
59881;DHT22;45751;51.380;10.326;2023-03-11T16:41:16;2.70;69.30
59881;DHT22;45751;51.380;10.326;2023-03-11T16:43:44;2.70;69.50
59881;DHT22;45751;51.380;10.326;2023-03-11T16:46:11;2.60;70.00
59881;DHT22;45751;51.380;10.326;2023-03-11T16:48:39;2.60;70.90
59881;DHT22;45751;51.380;10.326;2023-03-11T16:51:07;2.60;71.50
59881;DHT22;45751;51.380;10.326;2023-03-11T16:53:33;2.50;71.90
59881;DHT22;45751;51.380;10.326;2023-03-11T16:56:01;2.50;72.40
59881;DHT22;45751;51.380;10.326;2023-03-11T16:58:27;2.50;72.60
59881;DHT22;45751;51.380;10.326;2023-03-11T17:00:54;2.40;72.90
59881;DHT22;45751;51.380;10.326;2023-03-11T17:03:22;2.40;73.10
59881;DHT22;45751;51.380;10.326;2023-03-11T17:05:50;2.30;73.20
59881;DHT22;45751;51.380;10.326;2023-03-11T17:08:25;2.30;73.50
59881;DHT22;45751;51.380;10.326;2023-03-11T17:10:52;2.20;73.30
59881;DHT22;45751;51.380;10.326;2023-03-11T17:13:19;2.20;73.60
59881;DHT22;45751;51.380;10.326;2023-03-11T17:15:58;2.20;74.30
59881;DHT22;45751;51.380;10.326;2023-03-11T17:18:26;2.10;74.30
59881;DHT22;45751;51.380;10.326;2023-03-11T17:20:53;2.10;74.40
59881;DHT22;45751;51.380;10.326;2023-03-11T17:23:20;2.00;75.10
59881;DHT22;45751;51.380;10.326;2023-03-11T17:25:46;2.00;75.20
59881;DHT22;45751;51.380;10.326;2023-03-11T17:28:13;2.00;75.70
59881;DHT22;45751;51.380;10.326;2023-03-11T17:30:42;1.90;75.70
59881;DHT22;45751;51.380;10.326;2023-03-11T17:33:10;1.90;75.60
59881;DHT22;45751;51.380;10.326;2023-03-11T17:35:36;1.80;76.40
59881;DHT22;45751;51.380;10.326;2023-03-11T17:38:04;1.80;75.90
59881;DHT22;45751;51.380;10.326;2023-03-11T17:40:31;1.70;76.40
59881;DHT22;45751;51.380;10.326;2023-03-11T17:42:58;1.70;76.80